Time;durP1;ratioP1;P1;durP2;ratioP2;P2;SDS_P1;SDS_P2;PMS_P1;PMS_P2;Temp;Humidity;BMP_temperature;BMP_pressure;BME280_temperature;BME280_humidity;BME280_pressure;Samples;Min_cycle;Max_cycle;Signal;HPM_P1;HPM_P2
2022/01/01 00:02:23;;;;;;;22.20;11.68;;;;;;;;;;5036516;28;20037;-72
2022/01/01 00:05:06;;;;;;;20.63;11.85;;;;;;;;;;5063713;28;20125;-72
2022/01/01 00:07:39;;;;;;;18.67;10.85;;;;;;;;;;5041046;28;20045;-72
2022/01/01 00:10:25;;;;;;;20.77;11.23;;;;;;;;;;5045903;28;20045;-72
2022/01/01 00:13:05;;;;;;;18.85;10.88;;;;;;;;;;5016305;28;20052;-72
2022/01/01 00:16:09;;;;;;;17.90;10.02;;;;;;;;;;5015822;28;20034;-72
2022/01/01 00:18:37;;;;;;;16.83;9.98;;;;;;;;;;5015310;28;20038;-72
2022/01/01 00:21:05;;;;;;;15.95;9.43;;;;;;;;;;5014479;28;20046;-72
2022/01/01 00:23:45;;;;;;;17.42;10.25;;;;;;;;;;5015684;28;20037;-72
2022/01/01 00:26:14;;;;;;;14.98;9.20;;;;;;;;;;5015257;28;20045;-72
2022/01/01 00:28:44;;;;;;;12.88;7.93;;;;;;;;;;5015907;28;20388;-72
2022/01/01 00:31:13;;;;;;;13.48;8.40;;;;;;;;;;5014221;28;20069;-72
2022/01/01 00:33:40;;;;;;;15.07;8.73;;;;;;;;;;5023458;28;20111;-72
2022/01/01 00:36:08;;;;;;;13.95;8.40;;;;;;;;;;5032695;28;20112;-72
2022/01/01 00:38:36;;;;;;;12.75;8.35;;;;;;;;;;5044790;28;20041;-71
2022/01/01 00:41:05;;;;;;;16.90;8.63;;;;;;;;;;5036283;28;20041;-72
2022/01/01 00:43:36;;;;;;;13.32;8.55;;;;;;;;;;5054520;28;20491;-72
2022/01/01 00:46:06;;;;;;;14.05;8.60;;;;;;;;;;5055035;28;20037;-72
2022/01/01 00:48:35;;;;;;;14.20;8.27;;;;;;;;;;5055068;28;20041;-72
2022/01/01 00:51:23;;;;;;;11.45;7.72;;;;;;;;;;5055008;28;20051;-72
2022/01/01 00:53:53;;;;;;;18.15;8.20;;;;;;;;;;5054818;28;20057;-72
2022/01/01 00:56:23;;;;;;;12.52;7.70;;;;;;;;;;5055531;28;20048;-72
2022/01/01 00:58:51;;;;;;;13.75;7.53;;;;;;;;;;5055140;28;20408;-71
2022/01/01 01:01:21;;;;;;;12.25;7.47;;;;;;;;;;5053544;28;20037;-72
2022/01/01 01:03:53;;;;;;;13.63;7.40;;;;;;;;;;5054797;28;20068;-72
2022/01/01 01:06:22;;;;;;;11.82;7.45;;;;;;;;;;5053545;28;20135;-72
2022/01/01 01:08:54;;;;;;;11.27;7.30;;;;;;;;;;5086869;28;20069;-72
2022/01/01 01:11:23;;;;;;;11.25;7.13;;;;;;;;;;5053313;28;20045;-72
2022/01/01 01:13:59;;;;;;;11.48;6.97;;;;;;;;;;5053490;28;20414;-72
2022/01/01 01:16:29;;;;;;;12.02;7.47;;;;;;;;;;5053146;28;20069;-72
2022/01/01 01:18:57;;;;;;;11.65;7.15;;;;;;;;;;5054327;28;20115;-72
2022/01/01 01:21:25;;;;;;;11.70;7.57;;;;;;;;;;5054686;28;20120;-72
2022/01/01 01:23:55;;;;;;;12.23;7.60;;;;;;;;;;5053055;28;20099;-72
2022/01/01 01:26:28;;;;;;;12.40;7.55;;;;;;;;;;5054453;28;20056;-72
2022/01/01 01:29:01;;;;;;;13.23;7.68;;;;;;;;;;5054473;28;20076;-72
2022/01/01 01:31:31;;;;;;;14.73;7.80;;;;;;;;;;5052989;28;20051;-71
2022/01/01 01:34:24;;;;;;;11.52;7.63;;;;;;;;;;5054371;28;20052;-72
2022/01/01 01:37:23;;;;;;;14.27;8.32;;;;;;;;;;5054152;28;20128;-72
2022/01/01 01:39:50;;;;;;;15.23;8.32;;;;;;;;;;5053866;28;20045;-72
2022/01/01 01:42:33;;;;;;;12.10;7.70;;;;;;;;;;5054250;28;20479;-72
2022/01/01 01:45:28;;;;;;;12.52;7.35;;;;;;;;;;5053491;28;20056;-72
2022/01/01 01:47:58;;;;;;;11.93;7.57;;;;;;;;;;5053997;28;20411;-72
2022/01/01 01:50:28;;;;;;;10.82;7.28;;;;;;;;;;5053551;28;20048;-72
2022/01/01 01:52:56;;;;;;;11.52;7.18;;;;;;;;;;5052505;28;20049;-72
2022/01/01 01:55:27;;;;;;;12.52;7.85;;;;;;;;;;5052458;28;20037;-72
2022/01/01 01:57:59;;;;;;;10.15;6.80;;;;;;;;;;5052660;28;20045;-71
2022/01/01 02:03:17;;;;;;;10.40;6.50;;;;;;;;;;5053740;28;20049;-72
2022/01/01 02:05:47;;;;;;;10.93;6.47;;;;;;;;;;5052265;28;20438;-72
2022/01/01 02:08:22;;;;;;;10.32;7.00;;;;;;;;;;5053631;28;20137;-72
2022/01/01 02:10:52;;;;;;;11.63;6.53;;;;;;;;;;5053688;28;20086;-72
2022/01/01 02:18:50;;;;;;;11.07;7.05;;;;;;;;;;5053210;28;20044;-72
2022/01/01 02:21:20;;;;;;;10.80;7.03;;;;;;;;;;5053480;28;20044;-72
2022/01/01 02:23:59;;;;;;;11.68;7.03;;;;;;;;;;5053472;28;20061;-72
2022/01/01 02:26:31;;;;;;;11.63;6.85;;;;;;;;;;5051981;28;20505;-72
2022/01/01 02:29:05;;;;;;;11.65;7.55;;;;;;;;;;5053934;28;20044;-71
2022/01/01 02:31:36;;;;;;;10.35;6.85;;;;;;;;;;5051723;28;20091;-72
2022/01/01 02:34:05;;;;;;;13.60;7.68;;;;;;;;;;5053355;28;20459;-72
2022/01/01 02:37:01;;;;;;;12.55;7.47;;;;;;;;;;5052073;28;20056;-72
2022/01/01 02:39:29;;;;;;;12.43;7.70;;;;;;;;;;5051708;28;20041;-72
2022/01/01 02:45:30;;;;;;;12.55;7.35;;;;;;;;;;5052814;28;20099;-72
2022/01/01 02:47:58;;;;;;;14.10;8.02;;;;;;;;;;5053263;28;20430;-72
2022/01/01 02:50:29;;;;;;;13.57;8.32;;;;;;;;;;5056609;28;20388;-71
2022/01/01 02:52:57;;;;;;;11.95;8.38;;;;;;;;;;5057715;28;20056;-71
2022/01/01 02:55:29;;;;;;;13.02;7.97;;;;;;;;;;5051250;28;20045;-72
2022/01/01 02:58:12;;;;;;;13.77;8.20;;;;;;;;;;5085642;28;20049;-72
2022/01/01 03:00:41;;;;;;;13.98;8.90;;;;;;;;;;5053179;28;20116;-72
2022/01/01 03:03:20;;;;;;;11.65;7.88;;;;;;;;;;5055621;28;20036;-72
2022/01/01 03:05:48;;;;;;;14.13;8.93;;;;;;;;;;5055696;28;20076;-72
2022/01/01 03:08:26;;;;;;;12.73;8.05;;;;;;;;;;5056864;28;20037;-72
2022/01/01 03:11:24;;;;;;;15.38;9.00;;;;;;;;;;5054970;28;20049;-72
2022/01/01 03:13:55;;;;;;;14.52;8.68;;;;;;;;;;5056185;28;20112;-72
2022/01/01 03:16:31;;;;;;;12.77;8.20;;;;;;;;;;5056947;28;20048;-72
2022/01/01 03:19:04;;;;;;;12.90;7.75;;;;;;;;;;5057174;28;20114;-71
2022/01/01 03:21:32;;;;;;;16.60;9.30;;;;;;;;;;5056776;28;20061;-72
2022/01/01 03:24:04;;;;;;;15.05;9.50;;;;;;;;;;5055597;28;20426;-72
2022/01/01 03:26:32;;;;;;;14.00;8.95;;;;;;;;;;5056668;28;20137;-72
2022/01/01 03:29:08;;;;;;;15.02;8.98;;;;;;;;;;5055693;28;20041;-72
2022/01/01 03:31:38;;;;;;;14.32;9.23;;;;;;;;;;5056483;28;20045;-72
2022/01/01 03:34:11;;;;;;;15.20;8.95;;;;;;;;;;5056787;28;20044;-72
2022/01/01 03:36:40;;;;;;;13.23;8.23;;;;;;;;;;5055472;28;20119;-72
2022/01/01 03:39:10;;;;;;;16.10;9.63;;;;;;;;;;5055422;28;20053;-72
2022/01/01 03:41:39;;;;;;;13.73;8.82;;;;;;;;;;5056379;28;20116;-72
2022/01/01 03:44:12;;;;;;;13.60;8.75;;;;;;;;;;5056583;28;20402;-72
2022/01/01 03:46:42;;;;;;;15.73;9.23;;;;;;;;;;5055067;28;20132;-72
2022/01/01 03:49:12;;;;;;;15.30;9.10;;;;;;;;;;5055065;28;20048;-72
2022/01/01 03:51:49;;;;;;;15.20;9.50;;;;;;;;;;5056407;28;20069;-72
2022/01/01 03:54:17;;;;;;;16.88;9.20;;;;;;;;;;5056386;28;20057;-71
2022/01/01 03:57:27;;;;;;;15.93;9.25;;;;;;;;;;5056191;28;20086;-71
2022/01/01 03:59:55;;;;;;;17.08;9.55;;;;;;;;;;5056156;28;20048;-72
2022/01/01 04:02:57;;;;;;;15.13;9.02;;;;;;;;;;5055418;28;20045;-72
2022/01/01 04:05:26;;;;;;;15.02;9.27;;;;;;;;;;5056083;28;20037;-72
2022/01/01 04:07:53;;;;;;;14.85;9.27;;;;;;;;;;5054562;28;20049;-71
2022/01/01 04:10:22;;;;;;;18.67;9.30;;;;;;;;;;5056135;28;20048;-72
2022/01/01 04:13:15;;;;;;;17.15;10.23;;;;;;;;;;5053235;28;20056;-71
2022/01/01 04:16:08;;;;;;;18.40;9.15;;;;;;;;;;5055919;28;20462;-72
2022/01/01 04:19:01;;;;;;;13.93;8.98;;;;;;;;;;5055722;28;20045;-71
2022/01/01 04:21:28;;;;;;;15.18;9.27;;;;;;;;;;5055457;28;20550;-71
2022/01/01 04:24:07;;;;;;;14.45;9.77;;;;;;;;;;5055364;28;20044;-71
2022/01/01 04:26:36;;;;;;;17.65;9.98;;;;;;;;;;5055480;28;20041;-71
2022/01/01 04:29:10;;;;;;;16.88;9.80;;;;;;;;;;5054306;28;20059;-71
2022/01/01 04:31:38;;;;;;;18.00;10.80;;;;;;;;;;5055266;28;20095;-71
2022/01/01 04:34:09;;;;;;;19.27;10.15;;;;;;;;;;5055483;28;20131;-71
2022/01/01 04:36:47;;;;;;;19.00;10.77;;;;;;;;;;5055378;28;20131;-71
2022/01/01 04:39:15;;;;;;;19.50;11.55;;;;;;;;;;5055392;28;20131;-71
2022/01/01 04:41:42;;;;;;;20.55;12.60;;;;;;;;;;5053838;28;20066;-71
2022/01/01 04:44:12;;;;;;;20.48;11.90;;;;;;;;;;5053666;28;20109;-71
2022/01/01 04:46:43;;;;;;;22.35;13.05;;;;;;;;;;5054113;28;20041;-71
2022/01/01 04:49:15;;;;;;;26.73;12.95;;;;;;;;;;5053800;28;20051;-71
2022/01/01 04:51:48;;;;;;;25.95;14.23;;;;;;;;;;5055115;28;20063;-71
2022/01/01 04:54:17;;;;;;;21.55;13.18;;;;;;;;;;5055147;28;20055;-71
2022/01/01 04:56:52;;;;;;;22.92;13.38;;;;;;;;;;5055109;28;20399;-71
2022/01/01 04:59:19;;;;;;;22.63;13.80;;;;;;;;;;5036972;28;20140;-71
2022/01/01 05:01:53;;;;;;;24.92;13.90;;;;;;;;;;5055250;28;20064;-71
2022/01/01 05:04:25;;;;;;;23.83;14.60;;;;;;;;;;5053782;28;20052;-71
2022/01/01 05:06:57;;;;;;;23.20;14.15;;;;;;;;;;5053837;28;20446;-71
2022/01/01 05:09:28;;;;;;;26.55;15.55;;;;;;;;;;5054848;28;20470;-71
2022/01/01 05:11:55;;;;;;;23.90;14.65;;;;;;;;;;5054588;28;20060;-72
2022/01/01 05:14:30;;;;;;;25.45;15.25;;;;;;;;;;5037295;28;20380;-72
2022/01/01 05:17:00;;;;;;;28.25;16.63;;;;;;;;;;5054565;28;20065;-71
2022/01/01 05:19:28;;;;;;;27.85;15.35;;;;;;;;;;5054062;28;20044;-72
2022/01/01 05:21:58;;;;;;;28.02;15.55;;;;;;;;;;5053459;28;20049;-71
2022/01/01 05:24:28;;;;;;;29.73;16.92;;;;;;;;;;5052236;28;20049;-71
2022/01/01 05:27:00;;;;;;;26.38;15.60;;;;;;;;;;5054310;28;20041;-72
2022/01/01 05:29:31;;;;;;;29.42;15.80;;;;;;;;;;5054140;28;20053;-72
2022/01/01 05:31:59;;;;;;;30.77;17.25;;;;;;;;;;5054369;28;20072;-71
2022/01/01 05:34:32;;;;;;;27.73;16.50;;;;;;;;;;5054389;28;20037;-72
2022/01/01 05:37:09;;;;;;;29.42;16.60;;;;;;;;;;5053007;28;20411;-71
2022/01/01 05:39:39;;;;;;;28.15;17.10;;;;;;;;;;5054041;28;20043;-71
2022/01/01 05:42:12;;;;;;;28.00;16.63;;;;;;;;;;5054299;28;20095;-71
2022/01/01 05:44:44;;;;;;;29.70;17.80;;;;;;;;;;5053723;28;20136;-72
2022/01/01 05:47:20;;;;;;;32.40;17.80;;;;;;;;;;5054320;28;20480;-72
2022/01/01 05:49:49;;;;;;;30.20;17.50;;;;;;;;;;5054110;28;20124;-71
2022/01/01 05:52:16;;;;;;;30.92;17.80;;;;;;;;;;5052884;28;20507;-71
2022/01/01 05:54:48;;;;;;;30.50;17.02;;;;;;;;;;5053852;28;20040;-71
2022/01/01 05:57:17;;;;;;;30.10;17.42;;;;;;;;;;5052542;28;20145;-72
2022/01/01 05:59:54;;;;;;;31.48;18.77;;;;;;;;;;5054037;28;20045;-72
2022/01/01 06:02:47;;;;;;;32.72;17.80;;;;;;;;;;5053683;28;20067;-71
2022/01/01 06:05:19;;;;;;;28.95;16.38;;;;;;;;;;5052349;28;20048;-72
2022/01/01 06:07:47;;;;;;;31.67;17.25;;;;;;;;;;5053546;28;20502;-72
2022/01/01 06:10:18;;;;;;;30.73;18.50;;;;;;;;;;5053786;28;20041;-72
2022/01/01 06:12:50;;;;;;;29.02;16.80;;;;;;;;;;5053536;28;20032;-72
2022/01/01 06:15:20;;;;;;;33.67;18.20;;;;;;;;;;5035842;28;20059;-71
2022/01/01 06:17:52;;;;;;;36.03;20.10;;;;;;;;;;5053583;28;20052;-72
2022/01/01 06:20:21;;;;;;;28.85;16.08;;;;;;;;;;5053163;28;20459;-71
2022/01/01 06:23:04;;;;;;;24.08;14.95;;;;;;;;;;5053498;28;20132;-72
2022/01/01 06:25:33;;;;;;;23.20;14.88;;;;;;;;;;5053041;28;20111;-71
2022/01/01 06:28:06;;;;;;;25.02;15.55;;;;;;;;;;5052293;28;20040;-72
2022/01/01 06:30:34;;;;;;;26.48;15.35;;;;;;;;;;5052136;28;20045;-71
2022/01/01 06:33:14;;;;;;;27.55;15.38;;;;;;;;;;5053170;28;20071;-72
2022/01/01 06:35:43;;;;;;;25.00;15.15;;;;;;;;;;5053112;28;20041;-71
2022/01/01 06:38:17;;;;;;;27.30;15.88;;;;;;;;;;5053397;28;20041;-72
2022/01/01 06:40:49;;;;;;;27.60;15.32;;;;;;;;;;5053342;28;20065;-71
2022/01/01 06:43:23;;;;;;;24.45;15.38;;;;;;;;;;5051898;28;20068;-72
2022/01/01 06:46:15;;;;;;;26.52;14.68;;;;;;;;;;5053455;28;20102;-71
2022/01/01 06:49:08;;;;;;;26.48;15.10;;;;;;;;;;5051818;28;20561;-71
2022/01/01 06:52:10;;;;;;;27.08;14.60;;;;;;;;;;5053419;28;20049;-71
2022/01/01 06:54:39;;;;;;;25.13;14.70;;;;;;;;;;5053442;28;20140;-72
2022/01/01 06:57:33;;;;;;;24.98;14.27;;;;;;;;;;5051685;28;20045;-71
2022/01/01 07:00:01;;;;;;;22.85;13.65;;;;;;;;;;5053090;28;20098;-71
2022/01/01 07:02:38;;;;;;;24.58;14.57;;;;;;;;;;5051445;28;20509;-70
2022/01/01 07:05:08;;;;;;;23.98;14.52;;;;;;;;;;5039234;28;20437;-71
2022/01/01 07:07:39;;;;;;;22.88;13.93;;;;;;;;;;5031615;28;20041;-71
2022/01/01 07:10:20;;;;;;;23.02;13.70;;;;;;;;;;5064765;28;20046;-71
2022/01/01 07:12:48;;;;;;;24.13;15.13;;;;;;;;;;5032645;28;20083;-71
2022/01/01 07:15:17;;;;;;;26.98;14.85;;;;;;;;;;5065063;28;20061;-69
2022/01/01 07:17:48;;;;;;;26.08;15.30;;;;;;;;;;5032991;28;20124;-71
2022/01/01 07:20:17;;;;;;;24.55;14.93;;;;;;;;;;5032839;28;20092;-71
2022/01/01 07:22:45;;;;;;;23.42;14.27;;;;;;;;;;5039871;28;20120;-71
2022/01/01 07:25:13;;;;;;;25.52;15.27;;;;;;;;;;5040481;28;20065;-71
2022/01/01 07:27:42;;;;;;;31.48;19.05;;;;;;;;;;5044102;28;20044;-71
2022/01/01 07:30:10;;;;;;;25.75;14.88;;;;;;;;;;5038059;28;20049;-71
2022/01/01 07:32:46;;;;;;;24.83;14.95;;;;;;;;;;5041324;28;20045;-71
2022/01/01 07:38:30;;;;;;;26.02;14.73;;;;;;;;;;5045222;28;20569;-71
2022/01/01 07:48:29;;;;;;;22.33;13.35;;;;;;;;;;5038805;28;20383;-74
2022/01/01 07:51:08;;;;;;;18.52;12.95;;;;;;;;;;5046589;28;20045;-71
2022/01/01 07:53:35;;;;;;;22.00;13.48;;;;;;;;;;5080056;28;20403;-71
2022/01/01 07:56:03;;;;;;;20.33;12.63;;;;;;;;;;5080139;28;20055;-71
2022/01/01 07:58:33;;;;;;;20.40;13.32;;;;;;;;;;5038819;28;20116;-71
2022/01/01 08:01:01;;;;;;;19.90;12.82;;;;;;;;;;5053432;28;20056;-71
2022/01/01 08:03:29;;;;;;;20.77;13.60;;;;;;;;;;5015149;28;20092;-71
2022/01/01 08:05:59;;;;;;;18.17;12.48;;;;;;;;;;5031165;28;20042;-71
2022/01/01 08:08:31;;;;;;;22.83;14.70;;;;;;;;;;5031233;28;20048;-71
2022/01/01 08:10:59;;;;;;;19.77;12.98;;;;;;;;;;5015312;28;20399;-71
2022/01/01 08:13:52;;;;;;;20.98;14.25;;;;;;;;;;5031606;28;20042;-69
2022/01/01 08:16:20;;;;;;;20.25;12.57;;;;;;;;;;5015638;28;20431;-69
2022/01/01 08:18:49;;;;;;;21.15;12.65;;;;;;;;;;5047827;28;20057;-71
2022/01/01 08:21:17;;;;;;;19.42;12.00;;;;;;;;;;5047775;28;20073;-72
2022/01/01 08:23:49;;;;;;;17.80;12.13;;;;;;;;;;5048729;28;20049;-72
2022/01/01 08:26:17;;;;;;;17.33;12.07;;;;;;;;;;5015658;28;20049;-72
2022/01/01 08:29:10;;;;;;;18.17;11.68;;;;;;;;;;5016354;28;20401;-72
2022/01/01 08:31:41;;;;;;;20.40;11.50;;;;;;;;;;5015806;28;20076;-72
2022/01/01 08:34:18;;;;;;;17.20;11.30;;;;;;;;;;5015679;28;20042;-72
2022/01/01 08:36:49;;;;;;;16.50;11.52;;;;;;;;;;5015621;28;20096;-71
2022/01/01 08:39:17;;;;;;;17.27;11.27;;;;;;;;;;5033640;28;20125;-72
2022/01/01 08:41:45;;;;;;;16.42;11.45;;;;;;;;;;5031127;28;20412;-72
2022/01/01 08:44:15;;;;;;;17.30;11.10;;;;;;;;;;5058998;28;20044;-71
2022/01/01 08:46:43;;;;;;;17.02;10.90;;;;;;;;;;5033394;28;20060;-72
2022/01/01 08:49:15;;;;;;;15.50;11.18;;;;;;;;;;5035142;28;20519;-72
2022/01/01 08:51:43;;;;;;;16.45;11.00;;;;;;;;;;5034641;28;20037;-72
2022/01/01 08:54:13;;;;;;;17.27;10.45;;;;;;;;;;5028818;28;20401;-72
2022/01/01 08:56:41;;;;;;;16.70;11.10;;;;;;;;;;5014800;28;20115;-72
2022/01/01 08:59:10;;;;;;;17.40;10.48;;;;;;;;;;5013442;28;20049;-72
2022/01/01 09:01:38;;;;;;;14.00;10.68;;;;;;;;;;5014869;28;20076;-72
2022/01/01 09:04:05;;;;;;;15.20;10.18;;;;;;;;;;5013511;28;20042;-72
2022/01/01 09:06:33;;;;;;;16.77;10.52;;;;;;;;;;5014959;28;20133;-72
2022/01/01 09:09:04;;;;;;;14.88;10.23;;;;;;;;;;5015035;28;20410;-72
2022/01/01 09:11:32;;;;;;;15.88;10.02;;;;;;;;;;5013250;28;20136;-73
2022/01/01 09:13:59;;;;;;;16.58;9.75;;;;;;;;;;5014783;28;20156;-72
2022/01/01 09:16:29;;;;;;;14.98;10.30;;;;;;;;;;5014795;28;20119;-72
2022/01/01 09:19:00;;;;;;;15.77;10.38;;;;;;;;;;5013411;28;20050;-72
2022/01/01 09:21:27;;;;;;;14.70;9.77;;;;;;;;;;5014891;28;20045;-73
2022/01/01 09:23:56;;;;;;;13.35;9.95;;;;;;;;;;5014705;28;20046;-73
2022/01/01 09:26:26;;;;;;;17.30;10.55;;;;;;;;;;5014397;28;20473;-72
2022/01/01 09:28:54;;;;;;;14.18;10.38;;;;;;;;;;5014303;28;20099;-72
2022/01/01 09:31:24;;;;;;;12.25;8.70;;;;;;;;;;5030069;28;20045;-72
2022/01/01 09:33:53;;;;;;;14.32;9.80;;;;;;;;;;5034307;28;20045;-72
2022/01/01 09:36:23;;;;;;;14.75;9.13;;;;;;;;;;5033353;28;20041;-72
2022/01/01 09:39:20;;;;;;;12.63;9.30;;;;;;;;;;5034229;28;20049;-72
2022/01/01 09:41:49;;;;;;;15.00;9.30;;;;;;;;;;5034382;28;20124;-72
2022/01/01 09:44:48;;;;;;;13.00;9.02;;;;;;;;;;5033929;28;20045;-72
2022/01/01 09:47:41;;;;;;;13.68;8.85;;;;;;;;;;5016343;28;20092;-73
2022/01/01 09:50:10;;;;;;;11.88;7.93;;;;;;;;;;5030486;28;20053;-72
2022/01/01 09:52:39;;;;;;;12.63;9.10;;;;;;;;;;5032171;28;20614;-71
2022/01/01 09:55:11;;;;;;;11.30;7.82;;;;;;;;;;5033937;28;20484;-72
2022/01/01 09:57:44;;;;;;;10.15;7.22;;;;;;;;;;5034315;28;20045;-72
2022/01/01 10:00:12;;;;;;;11.63;7.55;;;;;;;;;;5032889;28;20046;-72
2022/01/01 10:02:41;;;;;;;10.60;7.57;;;;;;;;;;5033375;28;20385;-72
2022/01/01 10:05:11;;;;;;;11.00;8.25;;;;;;;;;;5030300;28;20042;-72
2022/01/01 10:07:39;;;;;;;11.00;8.13;;;;;;;;;;5033346;28;20076;-71
2022/01/01 10:10:19;;;;;;;12.73;8.57;;;;;;;;;;5031955;28;20132;-71
2022/01/01 10:12:50;;;;;;;10.60;8.20;;;;;;;;;;5032716;28;20568;-71
2022/01/01 10:15:18;;;;;;;14.13;8.35;;;;;;;;;;5032459;28;20099;-71
2022/01/01 10:17:50;;;;;;;12.65;8.63;;;;;;;;;;5033521;28;20128;-72
2022/01/01 10:20:24;;;;;;;13.25;9.10;;;;;;;;;;5033821;28;20100;-71
2022/01/01 10:22:53;;;;;;;13.20;8.68;;;;;;;;;;5033873;28;20037;-71
2022/01/01 10:28:11;;;;;;;11.45;8.85;;;;;;;;;;5032113;28;20053;-72
2022/01/01 10:30:44;;;;;;;12.15;8.68;;;;;;;;;;5033297;28;20073;-72
2022/01/01 10:33:14;;;;;;;12.68;8.73;;;;;;;;;;5033599;28;20050;-71
2022/01/01 10:35:45;;;;;;;13.13;8.27;;;;;;;;;;5033905;28;20124;-71
2022/01/01 10:38:28;;;;;;;14.40;9.43;;;;;;;;;;5032063;28;20415;-73
2022/01/01 10:40:57;;;;;;;13.32;8.50;;;;;;;;;;5033206;28;20519;-73
2022/01/01 10:43:42;;;;;;;16.23;10.55;;;;;;;;;;5030376;28;20052;-73
2022/01/01 10:46:14;;;;;;;13.45;9.45;;;;;;;;;;5031760;28;20116;-75
2022/01/01 10:48:58;;;;;;;14.88;9.57;;;;;;;;;;5032416;28;20033;-73
2022/01/01 10:51:35;;;;;;;12.65;9.52;;;;;;;;;;5031761;28;20087;-73
2022/01/01 10:54:08;;;;;;;13.13;9.43;;;;;;;;;;5032227;28;20088;-73
2022/01/01 10:56:38;;;;;;;13.75;9.30;;;;;;;;;;5033111;28;20404;-73
2022/01/01 10:59:11;;;;;;;14.80;10.05;;;;;;;;;;5031728;28;20077;-73
2022/01/01 11:02:10;;;;;;;12.15;9.15;;;;;;;;;;5033633;28;20081;-73
2022/01/01 11:04:39;;;;;;;12.45;9.43;;;;;;;;;;5033213;28;20124;-73
2022/01/01 11:07:10;;;;;;;15.80;10.13;;;;;;;;;;5032628;28;20037;-72
2022/01/01 11:09:46;;;;;;;13.57;10.32;;;;;;;;;;5033084;28;20075;-73
2022/01/01 11:12:17;;;;;;;13.57;9.35;;;;;;;;;;5033056;28;20041;-74
2022/01/01 11:14:45;;;;;;;14.80;9.20;;;;;;;;;;5032652;28;20546;-73
2022/01/01 11:17:17;;;;;;;12.88;9.10;;;;;;;;;;5032699;28;20049;-74
2022/01/01 11:19:46;;;;;;;12.77;8.48;;;;;;;;;;5060667;28;20472;-75
2022/01/01 11:22:14;;;;;;;11.60;8.32;;;;;;;;;;5031610;28;20041;-74
2022/01/01 11:24:43;;;;;;;12.00;7.85;;;;;;;;;;5036029;28;20041;-74
2022/01/01 11:27:12;;;;;;;12.35;8.93;;;;;;;;;;5037064;28;20044;-74
2022/01/01 11:29:49;;;;;;;10.93;7.80;;;;;;;;;;5034366;28;20049;-74
2022/01/01 11:32:20;;;;;;;10.88;7.68;;;;;;;;;;5036999;28;20175;-74
2022/01/01 11:34:49;;;;;;;12.05;7.85;;;;;;;;;;5036864;28;20088;-73
2022/01/01 11:37:22;;;;;;;13.35;8.35;;;;;;;;;;5036915;28;20045;-75
2022/01/01 11:39:55;;;;;;;12.18;7.88;;;;;;;;;;5036627;28;20071;-75
2022/01/01 11:42:23;;;;;;;11.50;7.85;;;;;;;;;;5036881;28;20369;-74
2022/01/01 11:44:56;;;;;;;10.20;7.85;;;;;;;;;;5035126;28;20041;-74
2022/01/01 11:47:25;;;;;;;20.92;13.80;;;;;;;;;;5036100;28;20464;-75
2022/01/01 11:49:58;;;;;;;12.23;7.40;;;;;;;;;;5036574;28;20034;-73
2022/01/01 11:52:34;;;;;;;10.45;7.47;;;;;;;;;;5036277;28;20040;-76
2022/01/01 11:55:06;;;;;;;10.05;7.60;;;;;;;;;;5036179;28;20092;-75
2022/01/01 11:57:34;;;;;;;12.60;7.65;;;;;;;;;;5035926;28;20046;-75
2022/01/01 12:00:13;;;;;;;10.45;6.68;;;;;;;;;;5029341;28;20165;-76
2022/01/01 12:02:44;;;;;;;10.45;6.85;;;;;;;;;;5035907;28;20049;-73
2022/01/01 12:05:13;;;;;;;8.05;5.65;;;;;;;;;;5035970;28;20476;-75
2022/01/01 12:07:42;;;;;;;9.93;5.90;;;;;;;;;;5028983;28;20563;-74
2022/01/01 12:10:15;;;;;;;8.23;5.65;;;;;;;;;;5035075;28;20049;-74
2022/01/01 12:12:50;;;;;;;7.85;5.13;;;;;;;;;;5034203;28;20100;-74
2022/01/01 12:15:43;;;;;;;6.83;5.27;;;;;;;;;;5035544;28;20045;-75
2022/01/01 12:18:36;;;;;;;8.98;5.93;;;;;;;;;;5035916;28;20048;-73
2022/01/01 12:21:18;;;;;;;9.95;6.55;;;;;;;;;;5035925;28;20037;-76
2022/01/01 12:23:58;;;;;;;9.88;7.22;;;;;;;;;;5035417;28;20091;-76
2022/01/01 12:26:51;;;;;;;7.63;5.70;;;;;;;;;;5035342;28;20045;-79
2022/01/01 12:29:22;;;;;;;8.75;5.60;;;;;;;;;;5035379;28;20077;-78
2022/01/01 12:31:56;;;;;;;9.00;6.65;;;;;;;;;;5033877;28;20041;-77
2022/01/01 12:34:28;;;;;;;7.63;5.32;;;;;;;;;;5034023;28;20048;-76
2022/01/01 12:37:05;;;;;;;9.10;5.97;;;;;;;;;;5034540;28;20135;-76
2022/01/01 12:39:52;;;;;;;9.70;5.78;;;;;;;;;;5035351;28;20064;-76
2022/01/01 12:42:31;;;;;;;8.27;5.90;;;;;;;;;;5035552;28;20054;-75
2022/01/01 12:45:24;;;;;;;8.50;6.03;;;;;;;;;;5035671;28;20535;-74
2022/01/01 12:47:52;;;;;;;8.98;6.35;;;;;;;;;;5038592;28;20051;-76
2022/01/01 12:50:24;;;;;;;9.38;6.65;;;;;;;;;;5034071;28;20041;-76
2022/01/01 12:52:54;;;;;;;9.00;6.55;;;;;;;;;;5031957;28;20053;-76
2022/01/01 12:55:25;;;;;;;9.60;6.78;;;;;;;;;;5032331;28;20381;-76
2022/01/01 13:01:07;;;;;;;8.00;5.88;;;;;;;;;;5035105;28;20431;-77
2022/01/01 13:04:00;;;;;;;9.23;6.03;;;;;;;;;;5033772;28;20037;-76
2022/01/01 13:06:32;;;;;;;8.15;5.82;;;;;;;;;;5033729;28;20526;-77
2022/01/01 13:09:14;;;;;;;8.50;6.13;;;;;;;;;;5034830;28;20045;-76
2022/01/01 13:11:49;;;;;;;8.95;6.25;;;;;;;;;;5034908;28;20045;-76
2022/01/01 13:14:17;;;;;;;10.65;5.55;;;;;;;;;;5033991;28;20045;-76
2022/01/01 13:17:09;;;;;;;8.80;6.28;;;;;;;;;;5034952;28;20055;-77
2022/01/01 13:19:41;;;;;;;7.63;5.40;;;;;;;;;;5033580;28;20480;-75
2022/01/01 13:22:09;;;;;;;8.98;5.88;;;;;;;;;;5033824;28;20037;-77
2022/01/01 13:24:40;;;;;;;8.98;5.95;;;;;;;;;;5035026;28;20041;-76
2022/01/01 13:27:09;;;;;;;7.90;5.80;;;;;;;;;;5034722;28;20132;-77
2022/01/01 13:29:40;;;;;;;8.70;6.05;;;;;;;;;;5034778;28;20365;-76
2022/01/01 13:32:12;;;;;;;10.18;5.95;;;;;;;;;;5033955;28;20045;-77
2022/01/01 13:34:49;;;;;;;9.20;6.10;;;;;;;;;;5034779;28;20103;-76
2022/01/01 13:37:21;;;;;;;9.05;5.68;;;;;;;;;;5034248;28;20136;-75
2022/01/01 13:39:58;;;;;;;9.23;5.70;;;;;;;;;;5033170;28;20140;-76
2022/01/01 13:42:33;;;;;;;8.02;6.03;;;;;;;;;;5034402;28;20037;-76
2022/01/01 13:45:04;;;;;;;8.68;6.00;;;;;;;;;;5033670;28;20053;-75
2022/01/01 13:47:35;;;;;;;9.10;6.20;;;;;;;;;;5033711;28;20503;-76
2022/01/01 13:50:16;;;;;;;8.43;6.13;;;;;;;;;;5034390;28;20076;-75
2022/01/01 13:52:55;;;;;;;7.15;5.10;;;;;;;;;;5033698;28;20037;-77
2022/01/01 13:55:26;;;;;;;7.10;5.20;;;;;;;;;;5034016;28;20045;-77
2022/01/01 13:57:56;;;;;;;9.18;5.65;;;;;;;;;;5032648;28;20073;-75
2022/01/01 14:00:27;;;;;;;9.05;5.43;;;;;;;;;;5034002;28;20069;-75
2022/01/01 14:02:57;;;;;;;8.00;5.53;;;;;;;;;;5032708;28;20080;-75
2022/01/01 14:05:30;;;;;;;7.63;5.40;;;;;;;;;;5032838;28;20065;-77
2022/01/01 14:08:25;;;;;;;7.43;5.53;;;;;;;;;;5034166;28;20120;-76
2022/01/01 14:10:56;;;;;;;6.63;5.15;;;;;;;;;;5032956;28;20478;-76
2022/01/01 14:13:39;;;;;;;8.52;5.93;;;;;;;;;;5033464;28;20445;-76
2022/01/01 14:16:15;;;;;;;8.50;5.95;;;;;;;;;;5032989;28;20162;-75
2022/01/01 14:18:47;;;;;;;7.88;5.60;;;;;;;;;;5033711;28;20116;-75
2022/01/01 14:21:24;;;;;;;6.85;5.20;;;;;;;;;;5032429;28;20046;-76
2022/01/01 14:23:55;;;;;;;6.78;5.40;;;;;;;;;;5032420;28;20539;-76
2022/01/01 14:26:26;;;;;;;8.25;5.75;;;;;;;;;;5033549;28;20376;-75
2022/01/01 14:28:58;;;;;;;7.82;6.07;;;;;;;;;;5032251;28;20064;-75
2022/01/01 14:31:28;;;;;;;9.05;6.70;;;;;;;;;;5033705;28;20494;-75
2022/01/01 14:33:59;;;;;;;7.93;6.03;;;;;;;;;;5032269;28;20048;-75
2022/01/01 14:36:51;;;;;;;9.38;6.63;;;;;;;;;;5032323;28;20451;-76
2022/01/01 14:39:19;;;;;;;8.23;6.35;;;;;;;;;;5033534;28;20123;-75
2022/01/01 14:41:50;;;;;;;9.52;7.60;;;;;;;;;;5015756;28;20068;-75
2022/01/01 14:44:18;;;;;;;10.35;7.57;;;;;;;;;;5033476;28;20115;-75
2022/01/01 14:46:50;;;;;;;10.48;7.95;;;;;;;;;;5065666;28;20417;-75
2022/01/01 14:49:37;;;;;;;12.50;9.35;;;;;;;;;;5032006;28;20399;-75
2022/01/01 14:52:15;;;;;;;14.30;9.10;;;;;;;;;;5033139;28;20456;-76
2022/01/01 14:54:48;;;;;;;11.98;9.10;;;;;;;;;;5031890;28;20569;-75
2022/01/01 14:57:39;;;;;;;14.80;10.30;;;;;;;;;;5037681;28;20387;-76
2022/01/01 15:00:09;;;;;;;16.05;10.90;;;;;;;;;;5038285;28;20103;-76
2022/01/01 15:02:40;;;;;;;13.60;11.13;;;;;;;;;;5039397;28;20137;-75
2022/01/01 15:05:32;;;;;;;16.67;11.90;;;;;;;;;;5040105;28;20456;-76
2022/01/01 15:08:02;;;;;;;17.38;13.15;;;;;;;;;;5039938;28;20126;-75
2022/01/01 15:10:55;;;;;;;16.63;12.57;;;;;;;;;;5071839;28;20049;-75
2022/01/01 15:13:24;;;;;;;16.95;13.32;;;;;;;;;;5038683;28;20444;-75
2022/01/01 15:16:17;;;;;;;18.65;13.90;;;;;;;;;;5038441;28;20488;-76
2022/01/01 15:19:10;;;;;;;20.55;14.63;;;;;;;;;;5038937;28;20087;-76
2022/01/01 15:22:03;;;;;;;19.63;14.38;;;;;;;;;;5040170;28;20431;-76
2022/01/01 15:24:37;;;;;;;21.55;15.93;;;;;;;;;;5039893;28;20488;-76
2022/01/01 15:27:16;;;;;;;24.70;16.80;;;;;;;;;;5071503;28;20495;-76
2022/01/01 15:35:40;;;;;;;23.35;17.52;;;;;;;;;;5039823;28;20136;-76
2022/01/01 15:38:09;;;;;;;27.13;18.25;;;;;;;;;;5039512;28;20125;-75
2022/01/01 15:40:53;;;;;;;26.85;18.10;;;;;;;;;;5035880;28;20116;-75